Time;durP1;ratioP1;P1;durP2;ratioP2;P2;SDS_P1;SDS_P2;PMS_P1;PMS_P2;Temp;Humidity;BMP_temperature;BMP_pressure;BME280_temperature;BME280_humidity;BME280_pressure;Samples;Min_cycle;Max_cycle;Signal;HPM_P1;HPM_P2
2022/11/13 00:00:53;;;;;;;26.95;15.80;;;;;;;11.84;99.50;101817.41;4937337;29;20078;-79
2022/11/13 00:03:41;;;;;;;20.55;13.73;;;;;;;11.76;99.38;101821.44;4940331;29;20051;-79
2022/11/13 00:06:29;;;;;;;21.80;11.57;;;;;;;11.69;96.82;101818.06;4940664;29;20062;-79
2022/11/13 00:09:16;;;;;;;18.17;11.48;;;;;;;11.75;97.47;101819.78;4954315;29;20063;-79
2022/11/13 00:12:02;;;;;;;19.05;11.82;;;;;;;11.67;97.20;101822.97;4940887;29;20404;-79
2022/11/13 00:14:49;;;;;;;17.33;11.00;;;;;;;11.65;97.14;101815.03;4939242;29;20486;-79
2022/11/13 00:17:35;;;;;;;18.20;11.77;;;;;;;11.69;95.70;101820.81;4940676;29;20414;-79
2022/11/13 00:20:22;;;;;;;10.10;7.00;;;;;;;11.80;89.95;101808.03;4940801;28;20398;-79
2022/11/13 00:23:09;;;;;;;8.82;4.97;;;;;;;12.22;77.58;101817.53;4953574;29;20051;-79
2022/11/13 00:26:01;;;;;;;8.68;4.97;;;;;;;12.54;74.90;101816.69;4940452;29;20051;-79
2022/11/13 00:29:02;;;;;;;4.85;3.40;;;;;;;13.09;67.40;101816.50;4940409;29;20557;-79
2022/11/13 00:31:48;;;;;;;3.42;2.30;;;;;;;13.60;61.04;101828.84;4939937;29;20059;-79
2022/11/13 00:34:35;;;;;;;2.55;2.05;;;;;;;13.98;58.79;101825.91;4940547;29;20043;-78
2022/11/13 00:37:37;;;;;;;1.77;1.30;;;;;;;14.25;55.23;101830.34;4942593;29;20047;-79
2022/11/13 00:40:24;;;;;;;1.42;0.90;;;;;;;14.50;54.21;101828.69;4926110;29;20047;-79
2022/11/13 00:43:11;;;;;;;2.08;1.50;;;;;;;14.52;54.58;101832.81;4940296;29;20051;-79
2022/11/13 00:45:57;;;;;;;1.10;1.00;;;;;;;14.64;54.80;101837.22;4953603;29;20050;-79
2022/11/13 00:48:44;;;;;;;1.10;0.85;;;;;;;14.52;54.61;101841.09;4953711;29;20051;-79
2022/11/13 00:51:31;;;;;;;0.52;0.52;;;;;;;14.75;52.55;101838.91;4935659;29;20047;-79
2022/11/13 00:54:18;;;;;;;1.73;1.15;;;;;;;14.96;51.13;101836.09;4940096;29;20128;-79
2022/11/13 00:57:05;;;;;;;0.60;0.60;;;;;;;15.07;52.48;101836.91;4939956;29;20063;-79
2022/11/13 00:59:51;;;;;;;0.95;0.82;;;;;;;15.13;50.06;101826.69;4952288;28;20490;-78
2022/11/13 01:02:39;;;;;;;0.60;0.60;;;;;;;15.22;50.57;101816.75;4953399;29;20055;-78
2022/11/13 01:05:27;;;;;;;0.98;0.90;;;;;;;15.29;50.38;101819.19;4939019;29;20073;-78
2022/11/13 01:08:15;;;;;;;2.50;0.90;;;;;;;15.32;50.01;101819.44;4939922;29;20123;-78
2022/11/13 01:11:17;;;;;;;1.67;1.10;;;;;;;15.27;50.39;101813.97;4953827;29;20043;-79
2022/11/13 01:14:04;;;;;;;1.67;1.25;;;;;;;15.34;50.13;101805.38;4954385;29;20051;-80
2022/11/13 01:16:51;;;;;;;1.50;1.17;;;;;;;15.36;50.44;101796.84;4953876;29;20052;-79
2022/11/13 01:19:37;;;;;;;1.13;1.02;;;;;;;15.27;49.44;101780.03;4953781;29;20039;-80
2022/11/13 01:22:24;;;;;;;3.10;0.90;;;;;;;15.52;48.83;101781.88;4954375;29;20792;-79
2022/11/13 01:25:11;;;;;;;0.80;0.80;;;;;;;15.46;49.66;101777.47;4953880;29;20039;-78
2022/11/13 01:27:57;;;;;;;1.60;1.00;;;;;;;15.35;49.82;101768.41;4952508;29;20039;-77
2022/11/13 01:30:44;;;;;;;0.93;0.52;;;;;;;15.49;48.79;101768.63;4953024;29;20487;-80
2022/11/13 01:33:30;;;;;;;0.73;0.60;;;;;;;15.55;48.75;101772.19;4954212;29;20051;-78
2022/11/13 01:36:22;;;;;;;1.92;1.02;;;;;;;15.52;50.00;101772.75;4954289;29;20047;-78
2022/11/13 01:39:11;;;;;;;1.77;0.88;;;;;;;15.37;48.88;101776.41;4953017;29;20537;-80
2022/11/13 01:41:57;;;;;;;0.60;0.60;;;;;;;15.44;49.26;101782.44;4954180;29;20047;-78
2022/11/13 01:44:51;;;;;;;1.65;0.80;;;;;;;15.29;49.99;101783.34;4954263;29;20051;-79
2022/11/13 01:47:37;;;;;;;2.07;0.90;;;;;;;15.32;49.87;101778.06;4953465;29;20050;-80
2022/11/13 01:50:24;;;;;;;1.38;0.90;;;;;;;15.27;49.81;101775.38;4953438;29;20645;-79
2022/11/13 01:53:11;;;;;;;1.60;0.70;;;;;;;15.30;49.84;101777.53;4953781;29;20048;-79
2022/11/13 01:56:01;;;;;;;0.80;0.80;;;;;;;15.41;49.30;101769.22;4953408;29;20058;-78
2022/11/13 01:58:56;;;;;;;2.28;0.65;;;;;;;15.48;49.73;101769.75;4954106;29;20054;-78
2022/11/13 02:01:43;;;;;;;2.00;1.00;;;;;;;15.22;50.74;101767.13;4941869;29;20426;-80
2022/11/13 02:04:31;;;;;;;1.33;0.88;;;;;;;15.25;49.36;101766.53;4954137;29;20417;-79
2022/11/13 02:07:20;;;;;;;0.65;0.60;;;;;;;15.10;51.20;101778.44;4954126;29;20043;-78
2022/11/13 02:10:08;;;;;;;1.05;0.90;;;;;;;14.90;51.65;101773.81;4953182;29;20058;-78
2022/11/13 02:12:55;;;;;;;1.45;1.00;;;;;;;14.87;51.33;101786.22;4953764;29;20051;-78
2022/11/13 02:15:42;;;;;;;2.13;1.63;;;;;;;14.78;52.42;101772.19;4952429;29;20046;-79
2022/11/13 02:18:30;;;;;;;2.10;0.98;;;;;;;14.94;51.74;101771.34;4951740;29;20050;-78
2022/11/13 02:21:24;;;;;;;1.45;0.90;;;;;;;14.96;51.32;101761.69;4953253;29;20506;-78
2022/11/13 02:24:11;;;;;;;1.52;1.10;;;;;;;15.08;49.46;101768.81;4953167;29;20043;-79
2022/11/13 02:27:01;;;;;;;0.75;0.75;;;;;;;15.09;48.63;101764.94;4953249;29;20406;-78
2022/11/13 02:29:48;;;;;;;0.65;0.60;;;;;;;15.19;49.43;101759.41;4953196;29;20043;-78
2022/11/13 02:32:35;;;;;;;0.98;0.68;;;;;;;15.10;50.80;101758.34;4953620;29;20059;-79
2022/11/13 02:35:29;;;;;;;2.22;0.80;;;;;;;14.95;49.57;101750.97;4953180;29;20422;-79
2022/11/13 02:38:15;;;;;;;1.05;0.90;;;;;;;14.77;49.84;101745.75;4955146;28;20062;-79
2022/11/13 02:41:02;;;;;;;1.40;0.80;;;;;;;14.82;49.32;101747.69;4955981;29;20479;-79
2022/11/13 02:43:48;;;;;;;2.03;1.00;;;;;;;14.84;48.57;101747.38;4956496;29;20039;-79
2022/11/13 02:46:35;;;;;;;1.63;0.85;;;;;;;14.88;48.54;101742.97;4956575;29;20047;-80
2022/11/13 02:49:24;;;;;;;1.27;1.15;;;;;;;14.90;49.50;101751.78;4951309;29;20051;-79
2022/11/13 02:52:10;;;;;;;1.00;0.70;;;;;;;14.83;48.66;101746.59;4937408;29;20055;-78
2022/11/13 02:54:58;;;;;;;1.27;1.02;;;;;;;14.82;49.35;101764.22;4941049;29;20785;-81
2022/11/13 02:57:44;;;;;;;1.52;0.77;;;;;;;15.04;47.65;101758.38;4956256;29;20046;-78
2022/11/13 03:00:32;;;;;;;0.98;0.90;;;;;;;15.10;47.27;101758.34;4940972;29;20039;-80
2022/11/13 03:03:19;;;;;;;0.63;0.57;;;;;;;14.94;48.34;101755.63;4937628;29;20403;-79
2022/11/13 03:06:25;;;;;;;1.13;0.80;;;;;;;14.96;48.36;101750.66;4946284;29;20406;-78
2022/11/13 03:09:12;;;;;;;2.13;0.70;;;;;;;14.77;48.07;101759.53;4955975;29;20044;-79
2022/11/13 03:11:58;;;;;;;1.05;0.88;;;;;;;14.74;50.00;101762.88;4955738;29;20058;-78
2022/11/13 03:14:44;;;;;;;1.42;0.88;;;;;;;14.62;51.25;101776.09;4956462;29;20529;-80
2022/11/13 03:17:31;;;;;;;2.90;1.27;;;;;;;14.44;50.17;101770.06;4955980;29;20046;-78
2022/11/13 03:20:18;;;;;;;1.42;0.90;;;;;;;14.47;49.64;101783.25;4955699;29;20047;-79
2022/11/13 03:23:05;;;;;;;1.30;0.75;;;;;;;14.41;49.03;101786.31;4955704;29;20051;-79
2022/11/13 03:25:51;;;;;;;1.00;0.80;;;;;;;14.68;47.13;101786.00;4956340;29;20046;-80
2022/11/13 03:28:38;;;;;;;1.52;1.10;;;;;;;14.74;47.46;101798.69;4956334;29;20047;-78
2022/11/13 03:31:27;;;;;;;1.60;1.20;;;;;;;14.68;46.67;101791.50;4956207;29;20051;-78
2022/11/13 03:34:13;;;;;;;2.03;1.58;;;;;;;14.52;47.35;101801.72;4955938;29;20494;-79
2022/11/13 03:37:01;;;;;;;3.80;1.73;;;;;;;14.51;48.09;101792.63;4956124;29;20047;-81
2022/11/13 03:39:48;;;;;;;1.20;0.88;;;;;;;14.48;47.50;101793.16;4954903;29;20059;-79
2022/11/13 03:42:35;;;;;;;2.72;1.65;;;;;;;14.33;48.13;101794.00;4954232;29;20059;-78
2022/11/13 03:45:21;;;;;;;4.97;1.70;;;;;;;14.41;48.38;101798.13;4938815;29;20047;-78
2022/11/13 03:48:08;;;;;;;2.90;1.52;;;;;;;14.34;49.25;101792.09;4936423;29;20407;-79
2022/11/13 03:50:57;;;;;;;2.50;1.80;;;;;;;14.26;49.69;101784.38;4953408;29;20050;-78
2022/11/13 03:53:44;;;;;;;2.42;1.70;;;;;;;14.04;50.89;101779.97;4954144;29;20051;-78
2022/11/13 03:56:30;;;;;;;2.28;1.55;;;;;;;14.04;50.38;101794.56;4955232;29;20047;-78
2022/11/13 03:59:17;;;;;;;4.07;1.75;;;;;;;14.00;50.79;101787.09;4967518;28;20043;-78
2022/11/13 04:02:04;;;;;;;2.10;1.60;;;;;;;13.86;50.98;101793.16;4954727;29;20039;-78
2022/11/13 04:04:50;;;;;;;2.78;1.38;;;;;;;13.89;50.49;101797.28;4954360;29;20058;-78
2022/11/13 04:07:36;;;;;;;1.90;1.73;;;;;;;13.89;49.58;101795.34;4954956;29;20147;-79
2022/11/13 04:10:24;;;;;;;3.00;1.50;;;;;;;13.81;50.19;101793.13;4954713;28;20058;-79
2022/11/13 04:13:11;;;;;;;3.47;1.83;;;;;;;13.84;50.17;101790.66;4955364;29;20063;-79
2022/11/13 04:16:00;;;;;;;4.22;1.40;;;;;;;13.82;50.73;101783.78;4954848;29;20047;-78
2022/11/13 04:18:46;;;;;;;2.38;1.58;;;;;;;13.79;49.86;101781.59;4955352;29;20509;-78
2022/11/13 04:21:32;;;;;;;3.05;2.15;;;;;;;13.86;50.89;101776.63;4939359;29;20573;-78
2022/11/13 04:24:19;;;;;;;3.83;1.90;;;;;;;13.81;50.54;101774.72;4955383;29;20047;-78
2022/11/13 04:27:05;;;;;;;1.80;1.70;;;;;;;13.72;50.69;101772.78;4955240;29;20395;-79
2022/11/13 04:29:51;;;;;;;4.63;1.85;;;;;;;13.79;51.18;101776.09;4954349;29;20494;-78
2022/11/13 04:32:37;;;;;;;2.17;1.88;;;;;;;13.59;52.35;101777.66;4954306;29;20051;-78
2022/11/13 04:35:24;;;;;;;2.58;1.65;;;;;;;13.46;52.95;101773.53;4955067;29;20494;-78
2022/11/13 04:38:11;;;;;;;3.17;1.90;;;;;;;13.22;54.50;101784.13;4955017;29;20054;-78
2022/11/13 04:44:07;;;;;;;4.82;2.38;;;;;;;13.24;55.48;101773.69;4941604;28;20077;-78
2022/11/13 04:46:54;;;;;;;3.15;1.92;;;;;;;13.12;55.13;101776.66;4940998;29;20059;-78
2022/11/13 04:49:40;;;;;;;3.30;1.88;;;;;;;13.00;56.72;101765.91;4944491;29;20509;-78
2022/11/13 04:52:27;;;;;;;3.20;2.15;;;;;;;12.96;54.90;101764.78;4954515;29;20070;-78
2022/11/13 04:55:14;;;;;;;2.88;2.25;;;;;;;13.06;55.54;101772.22;4954638;29;20128;-78
2022/11/13 04:58:00;;;;;;;4.10;2.22;;;;;;;12.83;56.70;101758.66;4953411;29;20052;-78
2022/11/13 05:00:46;;;;;;;3.63;2.30;;;;;;;12.80;55.91;101761.94;4952936;28;20124;-78
2022/11/13 05:03:33;;;;;;;2.88;2.05;;;;;;;12.83;57.02;101760.56;4954649;29;20047;-78
2022/11/13 05:06:20;;;;;;;2.22;1.83;;;;;;;12.76;56.80;101766.31;4954582;29;20502;-78
2022/11/13 05:09:08;;;;;;;2.25;2.05;;;;;;;12.57;57.73;101768.66;4953386;29;20491;-78
2022/11/13 05:11:54;;;;;;;2.60;2.08;;;;;;;12.46;60.06;101762.28;4951728;28;20047;-77
2022/11/13 05:14:41;;;;;;;2.20;1.80;;;;;;;12.31;59.51;101761.06;4935193;29;20051;-78
2022/11/13 05:17:27;;;;;;;3.80;2.00;;;;;;;12.21;59.95;101766.47;4947684;29;20052;-77
2022/11/13 05:20:14;;;;;;;3.92;2.28;;;;;;;12.20;58.96;101753.84;4934110;29;20051;-78
2022/11/13 05:23:00;;;;;;;3.42;2.17;;;;;;;12.01;61.08;101767.91;4952686;29;20614;-78
2022/11/13 05:25:47;;;;;;;4.45;2.40;;;;;;;12.14;59.41;101779.56;4966103;28;20047;-78
2022/11/13 05:28:34;;;;;;;2.65;1.80;;;;;;;12.10;60.26;101782.03;4954340;29;20418;-78
2022/11/13 05:31:21;;;;;;;1.98;1.75;;;;;;;12.05;60.82;101780.06;4954162;29;20058;-78
2022/11/13 05:34:08;;;;;;;3.40;2.80;;;;;;;11.92;60.40;101791.41;4954167;29;20058;-78
2022/11/13 05:36:54;;;;;;;3.20;2.20;;;;;;;12.12;60.20;101788.06;4952905;29;20066;-78
2022/11/13 05:39:43;;;;;;;3.20;1.95;;;;;;;12.41;57.48;101797.94;4953550;29;20043;-79
2022/11/13 05:42:29;;;;;;;2.92;1.63;;;;;;;12.58;55.44;101792.28;4954203;29;20047;-78
2022/11/13 05:45:16;;;;;;;1.92;1.75;;;;;;;12.71;56.60;101804.72;4953630;29;20043;-78
2022/11/13 05:48:02;;;;;;;2.25;1.88;;;;;;;12.82;56.01;101797.38;4934977;29;20051;-78
2022/11/13 05:50:48;;;;;;;2.00;1.80;;;;;;;12.82;56.48;101803.72;4950291;29;20054;-78
2022/11/13 05:53:36;;;;;;;2.97;1.85;;;;;;;12.90;55.54;101794.13;4953291;29;20066;-78
2022/11/13 05:56:29;;;;;;;5.35;2.38;;;;;;;12.85;55.48;101792.19;4953269;29;20072;-78
2022/11/13 05:59:16;;;;;;;5.38;2.10;;;;;;;12.68;56.76;101769.53;4952698;29;20048;-82
2022/11/13 06:02:02;;;;;;;2.35;1.88;;;;;;;12.83;55.99;101769.66;4953123;29;20509;-78
2022/11/13 06:04:48;;;;;;;2.35;2.10;;;;;;;12.83;56.59;101774.31;4953871;29;20035;-78
2022/11/13 06:07:36;;;;;;;3.63;2.00;;;;;;;12.73;56.44;101769.59;4953875;29;20052;-79
2022/11/13 06:10:23;;;;;;;2.53;1.90;;;;;;;12.76;55.56;101769.88;4952998;29;20046;-78
2022/11/13 06:13:09;;;;;;;2.45;1.90;;;;;;;12.68;56.32;101784.13;4950948;28;20058;-78
2022/11/13 06:16:01;;;;;;;2.35;1.88;;;;;;;12.62;56.38;101796.97;4954594;29;20042;-79
2022/11/13 06:18:49;;;;;;;2.67;1.95;;;;;;;12.77;56.74;101812.72;4937956;29;20052;-78
2022/11/13 06:21:38;;;;;;;2.63;1.67;;;;;;;12.81;56.39;101818.50;4940361;29;20040;-77
2022/11/13 06:24:24;;;;;;;3.50;1.80;;;;;;;12.70;57.21;101805.84;4954737;29;20043;-78
2022/11/13 06:27:11;;;;;;;2.85;2.17;;;;;;;12.77;58.28;101806.44;4947189;29;20054;-78
2022/11/13 06:29:57;;;;;;;3.38;1.92;;;;;;;12.53;58.04;101819.69;4952113;29;20035;-76
2022/11/13 06:32:51;;;;;;;3.20;2.17;;;;;;;12.41;58.51;101820.69;4944821;29;20035;-77
2022/11/13 06:35:37;;;;;;;2.42;2.00;;;;;;;12.48;58.64;101806.75;4950850;29;20035;-77
2022/11/13 06:38:24;;;;;;;3.67;2.10;;;;;;;12.66;58.77;101821.19;4957147;29;20422;-77
2022/11/13 06:41:13;;;;;;;2.55;2.00;;;;;;;12.69;59.55;101832.47;4957098;29;20044;-77
2022/11/13 06:44:00;;;;;;;2.30;1.73;;;;;;;12.52;59.82;101838.09;4955234;29;20056;-77
2022/11/13 06:46:48;;;;;;;3.17;2.60;;;;;;;12.48;59.67;101832.28;4956919;29;20043;-78
2022/11/13 06:49:35;;;;;;;2.90;2.33;;;;;;;12.61;58.71;101828.28;4956678;29;20039;-78
2022/11/13 06:52:22;;;;;;;3.90;2.40;;;;;;;12.64;59.64;101832.41;4955922;29;20502;-77
2022/11/13 06:55:09;;;;;;;2.58;2.08;;;;;;;12.81;58.81;101834.19;4955982;29;20058;-77
2022/11/13 06:57:55;;;;;;;3.20;1.92;;;;;;;12.87;58.27;101838.63;4955408;29;20062;-78
2022/11/13 07:00:42;;;;;;;3.17;2.42;;;;;;;13.02;58.16;101857.13;4956607;29;20064;-76
2022/11/13 07:03:29;;;;;;;2.08;1.88;;;;;;;13.17;57.37;101851.72;4946922;29;20375;-75
2022/11/13 07:06:18;;;;;;;4.20;2.22;;;;;;;13.13;58.79;101853.34;4953954;29;20402;-76
2022/11/13 07:09:05;;;;;;;2.83;2.50;;;;;;;13.39;57.16;101850.72;4946303;29;20063;-76
2022/11/13 07:11:52;;;;;;;2.78;1.85;;;;;;;13.52;56.89;101848.59;4946028;29;20055;-76
2022/11/13 07:14:38;;;;;;;5.70;2.28;;;;;;;13.56;57.55;101860.72;4955808;29;20051;-75
2022/11/13 07:17:24;;;;;;;5.93;2.28;;;;;;;13.64;55.86;101856.63;4946454;29;20491;-75
2022/11/13 07:20:12;;;;;;;3.33;2.30;;;;;;;13.63;55.91;101855.81;4943982;29;20054;-74
2022/11/13 07:23:02;;;;;;;4.45;2.30;;;;;;;13.74;56.25;101872.34;4962664;28;20039;-76
2022/11/13 07:25:53;;;;;;;3.38;2.47;;;;;;;13.79;56.62;101853.13;4951670;29;20051;-75
2022/11/13 07:28:40;;;;;;;2.33;1.75;;;;;;;13.95;55.02;101857.56;4954391;29;20074;-74
2022/11/13 07:31:27;;;;;;;1.95;1.65;;;;;;;14.18;54.68;101869.16;4953092;29;20395;-75
2022/11/13 07:34:13;;;;;;;2.20;1.52;;;;;;;14.36;53.25;101875.22;4952448;29;20059;-75
2022/11/13 07:37:00;;;;;;;3.95;1.85;;;;;;;14.36;54.03;101887.09;4953355;29;20055;-75
2022/11/13 07:39:48;;;;;;;4.18;2.20;;;;;;;14.32;53.21;101887.91;4950558;29;20426;-74
2022/11/13 07:42:34;;;;;;;2.17;1.80;;;;;;;14.51;53.56;101896.44;4947567;29;20043;-75
2022/11/13 07:45:21;;;;;;;3.95;2.40;;;;;;;14.36;53.46;101886.25;4948468;29;20059;-75
2022/11/13 07:48:10;;;;;;;2.50;1.23;;;;;;;14.85;53.73;101884.06;4949984;29;20425;-77
2022/11/13 07:51:00;;;;;;;3.17;1.83;;;;;;;14.70;53.07;101876.63;4950290;29;20047;-76
2022/11/13 07:53:47;;;;;;;2.08;1.60;;;;;;;14.61;53.86;101877.19;4945304;29;20055;-75
2022/11/13 07:56:33;;;;;;;2.10;1.90;;;;;;;14.89;53.11;101882.41;4954381;29;20050;-77
2022/11/13 07:59:20;;;;;;;2.72;1.70;;;;;;;14.91;53.40;101883.00;4949814;29;20604;-77
2022/11/13 08:02:09;;;;;;;3.05;1.67;;;;;;;14.80;53.29;101886.84;4949126;29;20072;-76
2022/11/13 08:04:56;;;;;;;3.50;1.98;;;;;;;14.70;53.96;101874.69;4953245;29;20495;-76
2022/11/13 08:07:46;;;;;;;2.05;1.85;;;;;;;14.89;53.13;101872.25;4953905;29;20059;-76
2022/11/13 08:10:36;;;;;;;1.45;1.35;;;;;;;14.88;52.49;101875.25;4948387;29;20051;-76
2022/11/13 08:13:23;;;;;;;6.60;1.70;;;;;;;14.79;51.21;101869.47;4965201;28;20035;-75
2022/11/13 08:16:10;;;;;;;4.70;1.80;;;;;;;14.82;51.80;101862.59;4949212;29;20055;-76
2022/11/13 08:18:57;;;;;;;1.40;1.30;;;;;;;15.02;50.87;101857.03;4952425;29;20047;-76
2022/11/13 08:21:44;;;;;;;4.72;2.08;;;;;;;14.95;50.33;101861.22;4944243;29;20044;-76
2022/11/13 08:24:36;;;;;;;4.20;1.77;;;;;;;14.71;51.12;101862.56;4948383;29;20032;-75
2022/11/13 08:27:24;;;;;;;1.98;1.75;;;;;;;15.09;52.21;101873.31;4953324;29;20090;-75
2022/11/13 08:30:12;;;;;;;2.08;1.73;;;;;;;15.17;51.53;101871.91;4952659;29;20047;-76
2022/11/13 08:33:02;;;;;;;2.50;1.65;;;;;;;15.43;50.92;101866.31;4962281;28;20420;-78
2022/11/13 08:35:55;;;;;;;4.15;1.70;;;;;;;15.37;51.63;101870.19;4946052;28;20479;-77
2022/11/13 08:38:42;;;;;;;3.03;2.07;;;;;;;15.24;52.13;101869.69;4947333;29;20047;-76
2022/11/13 08:41:28;;;;;;;2.78;1.60;;;;;;;15.26;52.83;101855.63;4945121;29;20666;-75
2022/11/13 08:44:15;;;;;;;2.10;1.65;;;;;;;15.68;51.35;101845.22;4942031;29;20039;-76
2022/11/13 08:47:15;;;;;;;3.75;2.72;;;;;;;15.72;51.68;101846.31;4943330;29;20472;-78
2022/11/13 08:50:03;;;;;;;1.95;1.75;;;;;;;15.45;51.28;101845.59;4948443;29;20039;-76
2022/11/13 08:52:57;;;;;;;2.95;1.88;;;;;;;15.71;51.27;101850.19;4934823;29;20056;-77
2022/11/13 08:55:44;;;;;;;3.15;2.20;;;;;;;16.06;51.32;101848.34;4944548;29;20051;-77
2022/11/13 08:58:31;;;;;;;2.05;1.50;;;;;;;15.89;50.69;101850.66;4953084;29;20402;-77
2022/11/13 09:01:21;;;;;;;2.13;1.73;;;;;;;15.88;49.28;101854.53;4938519;29;20046;-76
2022/11/13 09:04:08;;;;;;;1.77;1.35;;;;;;;16.12;49.21;101860.19;4953200;29;20043;-77
2022/11/13 09:06:54;;;;;;;2.28;1.60;;;;;;;15.97;48.01;101859.19;4950116;29;20046;-76
2022/11/13 09:09:41;;;;;;;2.60;2.05;;;;;;;16.28;48.45;101860.91;4951623;29;20058;-78
2022/11/13 09:12:28;;;;;;;2.15;1.95;;;;;;;16.48;46.95;101875.69;4952508;29;20050;-68
2022/11/13 09:15:14;;;;;;;4.15;1.80;;;;;;;16.42;47.72;101882.38;4952573;29;20043;-78
2022/11/13 09:18:09;;;;;;;3.92;2.10;;;;;;;16.11;47.54;101878.72;4954233;29;20043;-77
2022/11/13 09:21:00;;;;;;;2.50;1.95;;;;;;;15.83;48.38;101875.50;4945352;29;20047;-77
2022/11/13 09:23:47;;;;;;;3.53;1.85;;;;;;;16.18;47.31;101875.59;4953192;28;20054;-77
2022/11/13 09:26:38;;;;;;;2.92;2.13;;;;;;;16.06;47.05;101897.22;4956794;28;20574;-77
2022/11/13 09:29:25;;;;;;;2.08;1.88;;;;;;;16.35;46.38;101883.50;4952264;29;20572;-77
2022/11/13 09:32:16;;;;;;;2.60;2.05;;;;;;;16.44;47.87;101877.38;4952239;29;20048;-77
2022/11/13 09:35:02;;;;;;;2.40;1.65;;;;;;;16.50;46.26;101879.81;4934811;29;20063;-78
2022/11/13 09:37:55;;;;;;;1.80;1.67;;;;;;;16.62;45.93;101879.41;4942520;29;20052;-77
2022/11/13 09:40:56;;;;;;;4.30;2.50;;;;;;;16.74;45.18;101873.53;4936725;29;20498;-77
2022/11/13 09:44:00;;;;;;;4.82;2.05;;;;;;;16.60;45.54;101881.66;4950239;29;20513;-78
2022/11/13 09:46:54;;;;;;;3.92;2.83;;;;;;;16.62;47.62;101881.38;4950235;28;20058;-82
2022/11/13 09:49:46;;;;;;;4.95;2.80;;;;;;;16.26;45.63;101874.19;4956119;29;20403;-74
2022/11/13 09:52:36;;;;;;;3.38;2.47;;;;;;;16.39;44.97;101867.19;4957488;29;20442;-77
2022/11/13 09:55:31;;;;;;;3.33;2.25;;;;;;;16.35;45.90;101852.28;4957143;29;20047;-76
2022/11/13 09:58:31;;;;;;;2.97;2.70;;;;;;;16.24;46.20;101844.06;4955727;29;20040;-77
2022/11/13 10:01:32;;;;;;;6.00;2.95;;;;;;;16.32;46.14;101828.84;4950846;29;20050;-77
2022/11/13 10:04:30;;;;;;;3.55;2.83;;;;;;;16.63;45.81;101814.75;4952711;29;20482;-75
2022/11/13 10:07:25;;;;;;;5.55;3.00;;;;;;;16.43;46.46;101810.22;4949599;29;20039;-78
2022/11/13 10:10:18;;;;;;;2.70;2.30;;;;;;;16.70;45.18;101808.03;4956728;29;20047;-75
2022/11/13 10:13:09;;;;;;;5.95;2.30;;;;;;;16.55;45.08;101809.84;4956173;29;20035;-77
2022/11/13 10:16:08;;;;;;;6.40;2.95;;;;;;;16.44;45.54;101800.84;4947111;29;20055;-75
2022/11/13 10:19:05;;;;;;;2.78;2.17;;;;;;;16.52;45.05;101797.44;4951441;29;20047;-77
2022/11/13 10:22:06;;;;;;;2.83;2.50;;;;;;;16.30;45.22;101788.81;4955500;29;20043;-77
2022/11/13 10:25:25;;;;;;;3.85;2.45;;;;;;;16.60;45.21;101786.88;4955116;29;20039;-78
2022/11/13 10:28:23;;;;;;;3.78;2.67;;;;;;;16.37;46.24;101806.69;4956289;29;20062;-76
2022/11/13 10:31:40;;;;;;;3.28;2.30;;;;;;;16.31;45.25;101807.00;4952486;29;20039;-79
2022/11/13 10:34:28;;;;;;;4.05;2.78;;;;;;;16.61;46.09;101794.03;4956776;29;20047;-76
2022/11/13 10:37:29;;;;;;;2.85;2.50;;;;;;;16.54;45.70;101794.41;4956827;29;20047;-75
2022/11/13 10:40:34;;;;;;;5.30;2.60;;;;;;;16.27;44.95;101794.91;4950220;29;20048;-73
2022/11/13 10:43:23;;;;;;;4.30;2.50;;;;;;;16.37;44.56;101784.59;4953730;29;20039;-73
2022/11/13 10:46:21;;;;;;;2.55;1.80;;;;;;;16.20;44.48;101776.75;4954699;29;20047;-75
2022/11/13 10:49:19;;;;;;;3.13;2.70;;;;;;;16.43;44.38;101777.06;4956284;29;20058;-77
2022/11/13 10:52:26;;;;;;;4.53;2.58;;;;;;;16.27;45.14;101770.88;4940085;29;20482;-75
2022/11/13 10:55:42;;;;;;;4.05;2.78;;;;;;;15.93;46.08;101774.47;4952764;29;20046;-75
2022/11/13 10:58:29;;;;;;;;;;;;;;;15.82;45.86;101760.72;4968429;28;20055;-76
2022/11/13 11:01:22;;;;;;;3.35;2.65;;;;;;;15.79;45.97;101769.53;4955755;29;20393;-76
2022/11/13 11:04:20;;;;;;;2.78;2.58;;;;;;;15.81;46.45;101761.81;4952096;29;20128;-76
2022/11/13 11:07:21;;;;;;;4.18;2.67;;;;;;;16.01;46.66;101760.03;4953124;29;20051;-76
2022/11/13 11:10:20;;;;;;;3.72;3.15;;;;;;;16.52;45.91;101761.53;4935985;29;20664;-77
2022/11/13 11:13:22;;;;;;;5.35;3.42;;;;;;;16.73;46.29;101744.75;4943311;29;20052;-78
2022/11/13 11:16:14;;;;;;;4.07;3.00;;;;;;;16.49;45.83;101753.00;4952691;29;20055;-80
2022/11/13 11:19:03;;;;;;;5.60;3.40;;;;;;;16.67;45.14;101765.22;4946857;29;20387;-77
2022/11/13 11:21:59;;;;;;;6.50;3.45;;;;;;;16.81;45.51;101737.72;4945807;29;20054;-75
2022/11/13 11:24:56;;;;;;;6.40;3.83;;;;;;;16.47;46.64;101742.22;4937223;29;20059;-77
2022/11/13 11:27:49;;;;;;;4.75;3.58;;;;;;;16.82;45.23;101733.88;4936475;29;20376;-77
2022/11/13 11:30:48;;;;;;;4.65;3.80;;;;;;;16.53;46.12;101740.25;4943192;29;20399;-78
2022/11/13 11:33:58;;;;;;;5.30;3.78;;;;;;;16.46;45.89;101745.28;4954358;29;20047;-76
2022/11/13 11:37:00;;;;;;;3.92;3.45;;;;;;;16.75;46.59;101736.13;4942192;29;20050;-78
2022/11/13 11:40:13;;;;;;;5.93;3.70;;;;;;;16.50;46.75;101724.25;4955157;29;20047;-77
2022/11/13 11:43:18;;;;;;;5.50;3.63;;;;;;;16.40;47.05;101716.91;4950315;29;20047;-78
2022/11/13 11:46:12;;;;;;;8.65;4.68;;;;;;;16.45;46.98;101711.31;4952468;29;20058;-78
2022/11/13 11:49:00;;;;;;;3.80;3.25;;;;;;;16.36;48.13;101705.59;4942603;29;20047;-78
2022/11/13 11:52:14;;;;;;;9.57;4.43;;;;;;;16.95;47.48;101701.88;4952501;29;20066;-78
2022/11/13 11:55:09;;;;;;;8.40;4.82;;;;;;;16.14;48.70;101697.81;4948674;28;20039;-79
2022/11/13 11:58:23;;;;;;;8.43;5.00;;;;;;;16.12;48.82;101700.88;4952099;28;20051;-77
2022/11/13 12:01:27;;;;;;;7.72;5.18;;;;;;;16.43;48.83;101688.66;4946654;28;20054;-77
2022/11/13 12:04:52;;;;;;;5.95;4.53;;;;;;;16.58;48.68;101693.22;4948165;28;20050;-77
2022/11/13 12:08:09;;;;;;;6.63;4.53;;;;;;;16.21;49.12;101680.88;4943467;28;20059;-78
2022/11/13 12:11:04;;;;;;;7.30;4.35;;;;;;;16.07;48.97;101676.06;4947923;28;20058;-77
2022/11/13 12:14:24;;;;;;;6.80;4.53;;;;;;;16.10;49.60;101681.00;4949491;28;20039;-78
2022/11/13 12:17:18;;;;;;;5.85;4.82;;;;;;;16.12;49.91;101673.25;4951308;28;20043;-78
2022/11/13 12:20:25;;;;;;;6.63;4.32;;;;;;;16.29;50.55;101672.00;4946968;28;20379;-76
2022/11/13 12:23:30;;;;;;;7.60;4.70;;;;;;;15.99;50.07;101676.69;4948780;28;20058;-76
2022/11/13 12:26:41;;;;;;;9.45;5.03;;;;;;;16.11;51.98;101671.59;4948618;28;20116;-76
2022/11/13 12:29:39;;;;;;;7.03;4.65;;;;;;;16.45;50.97;101663.50;4948488;28;20402;-77
2022/11/13 12:32:38;;;;;;;7.55;5.07;;;;;;;16.56;49.69;101658.72;4950381;28;20051;-77
2022/11/13 12:35:26;;;;;;;6.70;4.85;;;;;;;16.78;49.09;101660.94;4952375;29;20058;-78
2022/11/13 12:38:21;;;;;;;7.63;5.38;;;;;;;16.72;48.77;101656.59;4948554;29;20055;-76
2022/11/13 12:41:27;;;;;;;8.35;5.30;;;;;;;16.93;49.81;101646.88;4951537;29;20039;-84
2022/11/13 12:44:23;;;;;;;6.13;4.63;;;;;;;16.72;50.02;101634.47;4950669;29;20050;-84
2022/11/13 12:47:11;;;;;;;7.25;4.82;;;;;;;16.34;49.90;101635.19;4950916;29;20043;-82
2022/11/13 12:50:04;;;;;;;6.80;4.80;;;;;;;16.31;51.27;101635.75;4952263;29;20044;-86
2022/11/13 12:53:10;;;;;;;7.60;4.80;;;;;;;16.25;50.51;101629.50;4950838;29;20047;-85
2022/11/13 12:56:00;;;;;;;8.05;5.13;;;;;;;16.13;51.24;101632.63;4952808;29;20394;-85
2022/11/13 12:58:59;;;;;;;6.70;4.78;;;;;;;16.33;50.74;101622.50;4950332;29;20063;-85
2022/11/13 13:02:08;;;;;;;9.18;5.53;;;;;;;16.08;50.24;101627.19;4952830;29;20043;-83
2022/11/13 13:05:09;;;;;;;6.63;5.28;;;;;;;16.20;50.97;101612.97;4952987;29;20054;-85
2022/11/13 13:08:15;;;;;;;7.57;4.95;;;;;;;16.07;50.08;101617.25;4952842;29;20062;-82
2022/11/13 13:11:19;;;;;;;7.03;4.95;;;;;;;16.08;52.14;101614.19;4950600;28;20043;-84
2022/11/13 13:14:21;;;;;;;8.63;5.38;;;;;;;16.19;51.49;101609.38;4949159;28;20533;-84
2022/11/13 13:17:13;;;;;;;6.75;4.95;;;;;;;16.27;51.50;101610.69;4950285;28;20054;-85